sensor_id;sensor_type;location;lat;lon;timestamp;pressure;altitude;pressure_sealevel;temperature;humidity
59787;BME280;45672;51.612;5.536;2023-04-07T00:00:12;101249.66;;;8.17;100.00
59787;BME280;45672;51.612;5.536;2023-04-07T00:02:37;101249.78;;;8.16;100.00
59787;BME280;45672;51.612;5.536;2023-04-07T00:05:02;101248.84;;;8.17;100.00
59787;BME280;45672;51.612;5.536;2023-04-07T00:07:28;101252.56;;;8.14;100.00
59787;BME280;45672;51.612;5.536;2023-04-07T00:09:53;101251.88;;;8.12;100.00
59787;BME280;45672;51.612;5.536;2023-04-07T00:12:18;101251.88;;;8.12;100.00
59787;BME280;45672;51.612;5.536;2023-04-07T00:14:44;101245.16;;;8.08;100.00
59787;BME280;45672;51.612;5.536;2023-04-07T00:17:09;101257.56;;;8.07;100.00
59787;BME280;45672;51.612;5.536;2023-04-07T00:19:35;101255.06;;;8.06;100.00
59787;BME280;45672;51.612;5.536;2023-04-07T00:22:00;101250.13;;;8.01;100.00
59787;BME280;45672;51.612;5.536;2023-04-07T00:24:25;101250.97;;;8.02;100.00
59787;BME280;45672;51.612;5.536;2023-04-07T00:26:51;101252.19;;;7.98;100.00
59787;BME280;45672;51.612;5.536;2023-04-07T00:29:16;101246.91;;;7.98;100.00
59787;BME280;45672;51.612;5.536;2023-04-07T00:31:42;101251.72;;;7.92;100.00
59787;BME280;45672;51.612;5.536;2023-04-07T00:34:07;101245.97;;;7.87;100.00
59787;BME280;45672;51.612;5.536;2023-04-07T00:36:32;101245.25;;;7.85;100.00
59787;BME280;45672;51.612;5.536;2023-04-07T00:38:58;101252.50;;;7.83;100.00
59787;BME280;45672;51.612;5.536;2023-04-07T00:41:23;101257.06;;;7.81;100.00
59787;BME280;45672;51.612;5.536;2023-04-07T00:43:50;101254.69;;;7.78;100.00
59787;BME280;45672;51.612;5.536;2023-04-07T00:46:16;101246.88;;;7.76;100.00
59787;BME280;45672;51.612;5.536;2023-04-07T00:48:42;101248.44;;;7.79;100.00
59787;BME280;45672;51.612;5.536;2023-04-07T00:51:07;101257.81;;;7.83;100.00
59787;BME280;45672;51.612;5.536;2023-04-07T00:53:33;101246.59;;;7.80;100.00
59787;BME280;45672;51.612;5.536;2023-04-07T00:55:58;101254.16;;;7.84;100.00
59787;BME280;45672;51.612;5.536;2023-04-07T00:58:23;101256.81;;;7.84;100.00
59787;BME280;45672;51.612;5.536;2023-04-07T01:01:06;101242.00;;;7.82;100.00
59787;BME280;45672;51.612;5.536;2023-04-07T01:03:44;101254.03;;;7.86;100.00
59787;BME280;45672;51.612;5.536;2023-04-07T01:06:13;101245.66;;;7.81;100.00
59787;BME280;45672;51.612;5.536;2023-04-07T01:11:28;101249.38;;;7.78;100.00
59787;BME280;45672;51.612;5.536;2023-04-07T01:13:56;101256.38;;;7.79;100.00
59787;BME280;45672;51.612;5.536;2023-04-07T01:18:56;101253.84;;;7.78;100.00
59787;BME280;45672;51.612;5.536;2023-04-07T01:21:26;101255.91;;;7.74;100.00
59787;BME280;45672;51.612;5.536;2023-04-07T01:24:26;101253.63;;;7.69;100.00
59787;BME280;45672;51.612;5.536;2023-04-07T01:27:06;101248.94;;;7.62;100.00
59787;BME280;45672;51.612;5.536;2023-04-07T01:29:41;101249.22;;;7.58;100.00
59787;BME280;45672;51.612;5.536;2023-04-07T01:32:13;101255.59;;;7.56;100.00
59787;BME280;45672;51.612;5.536;2023-04-07T01:34:40;101263.53;;;7.56;100.00
59787;BME280;45672;51.612;5.536;2023-04-07T01:37:06;101261.75;;;7.56;100.00
59787;BME280;45672;51.612;5.536;2023-04-07T01:39:34;101258.25;;;7.56;100.00
59787;BME280;45672;51.612;5.536;2023-04-07T01:42:00;101271.47;;;7.56;100.00
59787;BME280;45672;51.612;5.536;2023-04-07T01:44:29;101268.84;;;7.56;100.00
59787;BME280;45672;51.612;5.536;2023-04-07T01:46:56;101267.03;;;7.56;100.00
59787;BME280;45672;51.612;5.536;2023-04-07T01:49:24;101262.44;;;7.58;100.00
59787;BME280;45672;51.612;5.536;2023-04-07T01:51:50;101270.13;;;7.62;100.00
59787;BME280;45672;51.612;5.536;2023-04-07T01:54:17;101259.09;;;7.56;100.00
59787;BME280;45672;51.612;5.536;2023-04-07T01:56:43;101270.53;;;7.57;100.00
59787;BME280;45672;51.612;5.536;2023-04-07T01:59:09;101272.47;;;7.55;100.00
59787;BME280;45672;51.612;5.536;2023-04-07T02:01:34;101266.91;;;7.58;100.00
59787;BME280;45672;51.612;5.536;2023-04-07T02:04:23;101273.91;;;7.59;100.00
59787;BME280;45672;51.612;5.536;2023-04-07T02:07:08;101275.00;;;7.56;100.00
59787;BME280;45672;51.612;5.536;2023-04-07T02:09:37;101282.06;;;7.56;100.00
59787;BME280;45672;51.612;5.536;2023-04-07T02:12:07;101279.41;;;7.56;100.00
59787;BME280;45672;51.612;5.536;2023-04-07T02:14:34;101277.88;;;7.53;100.00
59787;BME280;45672;51.612;5.536;2023-04-07T02:17:01;101291.22;;;7.52;100.00
59787;BME280;45672;51.612;5.536;2023-04-07T02:19:28;101292.91;;;7.53;100.00
59787;BME280;45672;51.612;5.536;2023-04-07T02:21:54;101288.00;;;7.48;100.00
59787;BME280;45672;51.612;5.536;2023-04-07T02:24:20;101286.78;;;7.52;100.00
59787;BME280;45672;51.612;5.536;2023-04-07T02:26:48;101289.31;;;7.54;100.00
59787;BME280;45672;51.612;5.536;2023-04-07T02:29:13;101293.53;;;7.56;100.00
59787;BME280;45672;51.612;5.536;2023-04-07T02:31:39;101291.22;;;7.52;100.00
59787;BME280;45672;51.612;5.536;2023-04-07T02:34:05;101283.28;;;7.52;100.00
59787;BME280;45672;51.612;5.536;2023-04-07T02:36:30;101287.75;;;7.51;100.00
59787;BME280;45672;51.612;5.536;2023-04-07T02:38:55;101291.00;;;7.55;100.00
59787;BME280;45672;51.612;5.536;2023-04-07T02:41:21;101288.09;;;7.58;100.00
59787;BME280;45672;51.612;5.536;2023-04-07T02:43:47;101285.31;;;7.59;100.00
59787;BME280;45672;51.612;5.536;2023-04-07T02:46:12;101286.16;;;7.60;100.00
59787;BME280;45672;51.612;5.536;2023-04-07T02:48:37;101289.78;;;7.59;100.00
59787;BME280;45672;51.612;5.536;2023-04-07T02:51:03;101279.28;;;7.57;100.00
59787;BME280;45672;51.612;5.536;2023-04-07T02:53:28;101272.34;;;7.56;100.00
59787;BME280;45672;51.612;5.536;2023-04-07T02:55:53;101280.84;;;7.60;100.00
59787;BME280;45672;51.612;5.536;2023-04-07T02:58:19;101286.88;;;7.62;100.00
59787;BME280;45672;51.612;5.536;2023-04-07T03:00:47;101287.97;;;7.59;100.00
59787;BME280;45672;51.612;5.536;2023-04-07T03:03:12;101290.50;;;7.61;100.00
59787;BME280;45672;51.612;5.536;2023-04-07T03:05:37;101282.81;;;7.58;100.00
59787;BME280;45672;51.612;5.536;2023-04-07T03:08:03;101282.69;;;7.59;100.00
59787;BME280;45672;51.612;5.536;2023-04-07T03:10:28;101283.63;;;7.58;100.00
59787;BME280;45672;51.612;5.536;2023-04-07T03:12:53;101279.41;;;7.56;100.00
59787;BME280;45672;51.612;5.536;2023-04-07T03:15:19;101279.69;;;7.53;100.00
59787;BME280;45672;51.612;5.536;2023-04-07T03:17:44;101285.94;;;7.52;100.00
59787;BME280;45672;51.612;5.536;2023-04-07T03:20:10;101281.50;;;7.52;100.00
59787;BME280;45672;51.612;5.536;2023-04-07T03:22:35;101283.28;;;7.52;100.00
59787;BME280;45672;51.612;5.536;2023-04-07T03:25:01;101282.72;;;7.48;100.00
59787;BME280;45672;51.612;5.536;2023-04-07T03:27:26;101291.22;;;7.52;100.00
59787;BME280;45672;51.612;5.536;2023-04-07T03:29:53;101287.75;;;7.51;100.00
59787;BME280;45672;51.612;5.536;2023-04-07T03:32:18;101291.34;;;7.50;100.00
59787;BME280;45672;51.612;5.536;2023-04-07T03:34:43;101290.53;;;7.50;100.00
59787;BME280;45672;51.612;5.536;2023-04-07T03:37:08;101293.88;;;7.52;100.00
59787;BME280;45672;51.612;5.536;2023-04-07T03:39:34;101293.78;;;7.53;100.00
59787;BME280;45672;51.612;5.536;2023-04-07T03:42:02;101299.91;;;7.54;100.00
59787;BME280;45672;51.612;5.536;2023-04-07T03:44:27;101291.00;;;7.55;100.00
59787;BME280;45672;51.612;5.536;2023-04-07T03:46:53;101295.31;;;7.56;100.00
59787;BME280;45672;51.612;5.536;2023-04-07T03:49:18;101291.84;;;7.55;100.00
59787;BME280;45672;51.612;5.536;2023-04-07T03:51:43;101293.66;;;7.55;100.00
59787;BME280;45672;51.612;5.536;2023-04-07T03:54:09;101293.53;;;7.56;100.00
59787;BME280;45672;51.612;5.536;2023-04-07T03:56:34;101303.25;;;7.56;100.00
59787;BME280;45672;51.612;5.536;2023-04-07T03:59:00;101291.84;;;7.55;100.00
59787;BME280;45672;51.612;5.536;2023-04-07T04:01:25;101307.72;;;7.55;100.00
59787;BME280;45672;51.612;5.536;2023-04-07T04:03:50;101307.03;;;7.53;100.00
59787;BME280;45672;51.612;5.536;2023-04-07T04:06:16;101298.34;;;7.51;100.00
59787;BME280;45672;51.612;5.536;2023-04-07T04:08:41;101299.81;;;7.44;100.00
59787;BME280;45672;51.612;5.536;2023-04-07T04:11:06;101301.38;;;7.47;100.00
59787;BME280;45672;51.612;5.536;2023-04-07T04:13:32;101302.06;;;7.49;100.00
59787;BME280;45672;51.612;5.536;2023-04-07T04:15:57;101295.00;;;7.49;100.00
59787;BME280;45672;51.612;5.536;2023-04-07T04:18:22;101301.25;;;7.48;100.00
59787;BME280;45672;51.612;5.536;2023-04-07T04:20:48;101296.06;;;7.47;100.00
59787;BME280;45672;51.612;5.536;2023-04-07T04:23:14;101301.25;;;7.48;100.00
59787;BME280;45672;51.612;5.536;2023-04-07T04:25:39;101305.72;;;7.48;100.00
59787;BME280;45672;51.612;5.536;2023-04-07T04:28:05;101304.00;;;7.47;100.00
59787;BME280;45672;51.612;5.536;2023-04-07T04:30:30;101302.19;;;7.47;100.00
59787;BME280;45672;51.612;5.536;2023-04-07T04:32:56;101305.72;;;7.48;100.00
59787;BME280;45672;51.612;5.536;2023-04-07T04:35:21;101304.97;;;7.46;100.00
59787;BME280;45672;51.612;5.536;2023-04-07T04:37:47;101308.81;;;7.41;100.00
59787;BME280;45672;51.612;5.536;2023-04-07T04:40:12;101290.19;;;7.32;100.00
59787;BME280;45672;51.612;5.536;2023-04-07T04:42:38;101310.63;;;7.41;100.00
59787;BME280;45672;51.612;5.536;2023-04-07T04:45:04;101311.59;;;7.40;100.00
59787;BME280;45672;51.612;5.536;2023-04-07T04:47:30;101317.28;;;7.35;100.00
59787;BME280;45672;51.612;5.536;2023-04-07T04:49:55;101318.09;;;7.36;100.00
59787;BME280;45672;51.612;5.536;2023-04-07T04:52:21;101330.38;;;7.37;100.00
59787;BME280;45672;51.612;5.536;2023-04-07T04:54:46;101320.88;;;7.34;100.00
59787;BME280;45672;51.612;5.536;2023-04-07T04:57:11;101323.16;;;7.39;100.00
59787;BME280;45672;51.612;5.536;2023-04-07T04:59:37;101327.72;;;7.37;100.00
59787;BME280;45672;51.612;5.536;2023-04-07T05:02:03;101329.31;;;7.39;100.00
59787;BME280;45672;51.612;5.536;2023-04-07T05:04:29;101321.59;;;7.36;100.00
59787;BME280;45672;51.612;5.536;2023-04-07T05:06:54;101326.78;;;7.38;100.00
59787;BME280;45672;51.612;5.536;2023-04-07T05:09:20;101337.81;;;7.43;100.00
59787;BME280;45672;51.612;5.536;2023-04-07T05:11:45;101336.03;;;7.44;100.00
59787;BME280;45672;51.612;5.536;2023-04-07T05:14:10;101339.63;;;7.42;100.00
59787;BME280;45672;51.612;5.536;2023-04-07T05:16:36;101336.03;;;7.44;100.00
59787;BME280;45672;51.612;5.536;2023-04-07T05:19:01;101342.16;;;7.44;100.00
59787;BME280;45672;51.612;5.536;2023-04-07T05:21:26;101342.16;;;7.44;100.00
59787;BME280;45672;51.612;5.536;2023-04-07T05:23:52;101348.28;;;7.45;100.00
59787;BME280;45672;51.612;5.536;2023-04-07T05:26:17;101345.75;;;7.43;100.00
59787;BME280;45672;51.612;5.536;2023-04-07T05:28:43;101339.75;;;7.41;100.00
59787;BME280;45672;51.612;5.536;2023-04-07T05:31:08;101350.47;;;7.39;100.00
59787;BME280;45672;51.612;5.536;2023-04-07T05:33:34;101346.38;;;7.35;100.00
59787;BME280;45672;51.612;5.536;2023-04-07T05:35:59;101350.59;;;7.38;100.00
59787;BME280;45672;51.612;5.536;2023-04-07T05:38:24;101358.41;;;7.39;100.00
59787;BME280;45672;51.612;5.536;2023-04-07T05:40:50;101356.72;;;7.38;100.00
59787;BME280;45672;51.612;5.536;2023-04-07T05:43:15;101350.47;;;7.39;100.00
59787;BME280;45672;51.612;5.536;2023-04-07T05:45:40;101350.94;;;7.45;100.00
59787;BME280;45672;51.612;5.536;2023-04-07T05:48:06;101351.78;;;7.45;100.00
59787;BME280;45672;51.612;5.536;2023-04-07T05:50:31;101365.63;;;7.49;100.00
59787;BME280;45672;51.612;5.536;2023-04-07T05:52:56;101361.75;;;7.53;100.00
59787;BME280;45672;51.612;5.536;2023-04-07T05:55:22;101362.50;;;7.55;100.00
59787;BME280;45672;51.612;5.536;2023-04-07T05:57:47;101363.94;;;7.59;100.00
59787;BME280;45672;51.612;5.536;2023-04-07T06:00:14;101364.66;;;7.61;100.00
59787;BME280;45672;51.612;5.536;2023-04-07T06:02:39;101359.22;;;7.63;100.00
59787;BME280;45672;51.612;5.536;2023-04-07T06:05:05;101369.44;;;7.67;100.00
59787;BME280;45672;51.612;5.536;2023-04-07T06:07:31;101374.63;;;7.69;100.00
59787;BME280;45672;51.612;5.536;2023-04-07T06:09:57;101379.81;;;7.70;100.00
59787;BME280;45672;51.612;5.536;2023-04-07T06:12:22;101387.03;;;7.68;100.00
59787;BME280;45672;51.612;5.536;2023-04-07T06:14:54;101374.75;;;7.67;100.00
59787;BME280;45672;51.612;5.536;2023-04-07T06:17:21;101381.72;;;7.68;100.00
59787;BME280;45672;51.612;5.536;2023-04-07T06:19:47;101380.78;;;7.69;100.00
59787;BME280;45672;51.612;5.536;2023-04-07T06:22:12;101378.97;;;7.70;100.00
59787;BME280;45672;51.612;5.536;2023-04-07T06:24:37;101381.22;;;7.74;100.00
59787;BME280;45672;51.612;5.536;2023-04-07T06:27:02;101388.69;;;7.81;100.00
59787;BME280;45672;51.612;5.536;2023-04-07T06:29:37;101388.44;;;7.84;100.00
59787;BME280;45672;51.612;5.536;2023-04-07T06:32:02;101393.50;;;7.87;100.00
59787;BME280;45672;51.612;5.536;2023-04-07T06:34:27;101393.50;;;7.87;100.00
59787;BME280;45672;51.612;5.536;2023-04-07T06:36:53;101404.56;;;7.92;100.00
59787;BME280;45672;51.612;5.536;2023-04-07T06:39:18;101400.84;;;7.94;100.00
59787;BME280;45672;51.612;5.536;2023-04-07T06:41:44;101397.69;;;8.01;100.00
59787;BME280;45672;51.612;5.536;2023-04-07T06:44:11;101396.22;;;8.08;100.00
59787;BME280;45672;51.612;5.536;2023-04-07T06:46:36;101398.22;;;8.16;100.00
59787;BME280;45672;51.612;5.536;2023-04-07T06:49:02;101402.31;;;8.20;100.00
59787;BME280;45672;51.612;5.536;2023-04-07T06:51:28;101409.78;;;8.26;100.00
59787;BME280;45672;51.612;5.536;2023-04-07T06:53:53;101413.59;;;8.33;100.00
59787;BME280;45672;51.612;5.536;2023-04-07T06:56:19;101410.22;;;8.31;100.00
59787;BME280;45672;51.612;5.536;2023-04-07T06:58:45;101412.19;;;8.29;100.00
59787;BME280;45672;51.612;5.536;2023-04-07T07:01:10;101418.44;;;8.28;100.00
59787;BME280;45672;51.612;5.536;2023-04-07T07:03:35;101420.25;;;8.27;100.00
59787;BME280;45672;51.612;5.536;2023-04-07T07:06:01;101416.31;;;8.22;100.00
59787;BME280;45672;51.612;5.536;2023-04-07T07:08:27;101422.91;;;8.27;100.00
59787;BME280;45672;51.612;5.536;2023-04-07T07:10:53;101425.03;;;8.34;100.00
59787;BME280;45672;51.612;5.536;2023-04-07T07:13:21;101431.78;;;8.38;100.00
59787;BME280;45672;51.612;5.536;2023-04-07T07:15:48;101426.34;;;8.39;100.00
59787;BME280;45672;51.612;5.536;2023-04-07T07:18:13;101427.31;;;8.38;100.00
59787;BME280;45672;51.612;5.536;2023-04-07T07:20:38;101429.75;;;8.41;100.00
59787;BME280;45672;51.612;5.536;2023-04-07T07:23:04;101431.03;;;8.47;100.00
59787;BME280;45672;51.612;5.536;2023-04-07T07:25:29;101437.41;;;8.56;100.00
59787;BME280;45672;51.612;5.536;2023-04-07T07:27:55;101437.59;;;8.64;100.00
59787;BME280;45672;51.612;5.536;2023-04-07T07:30:21;101444.59;;;8.65;100.00
59787;BME280;45672;51.612;5.536;2023-04-07T07:32:47;101436.38;;;8.68;100.00
59787;BME280;45672;51.612;5.536;2023-04-07T07:35:13;101444.34;;;8.68;100.00
59787;BME280;45672;51.612;5.536;2023-04-07T07:37:39;101452.91;;;8.72;100.00
59787;BME280;45672;51.612;5.536;2023-04-07T07:40:05;101450.38;;;8.70;100.00
59787;BME280;45672;51.612;5.536;2023-04-07T07:42:30;101458.81;;;8.64;100.00
59787;BME280;45672;51.612;5.536;2023-04-07T07:44:57;101448.47;;;8.61;100.00
59787;BME280;45672;51.612;5.536;2023-04-07T07:47:22;101459.09;;;8.61;100.00
59787;BME280;45672;51.612;5.536;2023-04-07T07:49:47;101454.25;;;8.66;100.00
59787;BME280;45672;51.612;5.536;2023-04-07T07:52:13;101454.47;;;8.74;100.00
59787;BME280;45672;51.612;5.536;2023-04-07T07:54:38;101458.72;;;8.87;100.00
59787;BME280;45672;51.612;5.536;2023-04-07T07:57:04;101466.50;;;9.00;100.00
59787;BME280;45672;51.612;5.536;2023-04-07T07:59:30;101461.78;;;9.03;100.00
59787;BME280;45672;51.612;5.536;2023-04-07T08:01:56;101470.22;;;9.08;100.00
59787;BME280;45672;51.612;5.536;2023-04-07T08:04:21;101470.38;;;9.17;100.00
59787;BME280;45672;51.612;5.536;2023-04-07T08:06:47;101478.66;;;9.23;100.00
59787;BME280;45672;51.612;5.536;2023-04-07T08:09:13;101480.22;;;9.26;100.00
59787;BME280;45672;51.612;5.536;2023-04-07T08:11:39;101481.84;;;9.17;100.00
59787;BME280;45672;51.612;5.536;2023-04-07T08:14:04;101484.19;;;9.10;100.00
59787;BME280;45672;51.612;5.536;2023-04-07T08:16:30;101492.41;;;9.07;100.00
59787;BME280;45672;51.612;5.536;2023-04-07T08:18:55;101492.97;;;9.11;100.00
59787;BME280;45672;51.612;5.536;2023-04-07T08:21:20;101488.13;;;9.16;100.00
59787;BME280;45672;51.612;5.536;2023-04-07T08:23:46;101486.56;;;9.13;100.00
59787;BME280;45672;51.612;5.536;2023-04-07T08:26:11;101486.63;;;9.02;100.00
59787;BME280;45672;51.612;5.536;2023-04-07T08:28:36;101489.16;;;9.04;100.00
59787;BME280;45672;51.612;5.536;2023-04-07T08:31:02;101490.97;;;9.03;100.00
59787;BME280;45672;51.612;5.536;2023-04-07T08:33:27;101500.09;;;9.10;100.00
59787;BME280;45672;51.612;5.536;2023-04-07T08:35:52;101486.84;;;9.10;100.00
59787;BME280;45672;51.612;5.536;2023-04-07T08:38:17;101501.06;;;9.09;100.00
59787;BME280;45672;51.612;5.536;2023-04-07T08:40:43;101502.81;;;8.99;100.00
59787;BME280;45672;51.612;5.536;2023-04-07T08:43:09;101502.69;;;9.01;100.00
59787;BME280;45672;51.612;5.536;2023-04-07T08:45:39;101506.19;;;9.01;100.00
59787;BME280;45672;51.612;5.536;2023-04-07T08:48:26;101514.94;;;9.13;100.00
59787;BME280;45672;51.612;5.536;2023-04-07T08:50:59;101512.09;;;9.26;100.00
59787;BME280;45672;51.612;5.536;2023-04-07T08:53:34;101519.44;;;9.43;100.00
59787;BME280;45672;51.612;5.536;2023-04-07T08:56:00;101511.88;;;9.60;100.00
59787;BME280;45672;51.612;5.536;2023-04-07T08:58:27;101508.75;;;9.86;100.00
59787;BME280;45672;51.612;5.536;2023-04-07T09:00:53;101512.78;;;10.11;100.00
59787;BME280;45672;51.612;5.536;2023-04-07T09:03:20;101515.81;;;10.06;100.00
59787;BME280;45672;51.612;5.536;2023-04-07T09:05:48;101522.09;;;9.95;100.00
59787;BME280;45672;51.612;5.536;2023-04-07T09:08:15;101522.06;;;9.86;100.00
59787;BME280;45672;51.612;5.536;2023-04-07T09:10:40;101538.91;;;9.75;100.00
59787;BME280;45672;51.612;5.536;2023-04-07T09:13:05;101525.34;;;9.68;100.00
59787;BME280;45672;51.612;5.536;2023-04-07T09:15:31;101521.00;;;9.67;100.00
59787;BME280;45672;51.612;5.536;2023-04-07T09:17:57;101533.38;;;9.57;100.00
59787;BME280;45672;51.612;5.536;2023-04-07T09:20:23;101533.75;;;9.52;100.00
59787;BME280;45672;51.612;5.536;2023-04-07T09:22:49;101538.09;;;9.53;100.00
59787;BME280;45672;51.612;5.536;2023-04-07T09:25:20;101536.47;;;9.62;100.00
59787;BME280;45672;51.612;5.536;2023-04-07T09:30:27;101536.25;;;9.75;100.00
59787;BME280;45672;51.612;5.536;2023-04-07T09:32:53;101538.53;;;9.79;100.00
59787;BME280;45672;51.612;5.536;2023-04-07T09:35:18;101536.84;;;9.78;100.00
59787;BME280;45672;51.612;5.536;2023-04-07T09:37:54;101535.44;;;9.74;100.00
59787;BME280;45672;51.612;5.536;2023-04-07T09:40:25;101527.44;;;9.74;100.00
59787;BME280;45672;51.612;5.536;2023-04-07T09:42:51;101529.53;;;9.71;100.00
59787;BME280;45672;51.612;5.536;2023-04-07T09:45:24;101530.19;;;9.63;100.00
59787;BME280;45672;51.612;5.536;2023-04-07T09:47:50;101543.63;;;9.61;100.00
59787;BME280;45672;51.612;5.536;2023-04-07T09:50:29;101536.22;;;9.65;100.00
59787;BME280;45672;51.612;5.536;2023-04-07T09:52:55;101540.81;;;9.63;100.00
59787;BME280;45672;51.612;5.536;2023-04-07T09:55:22;101543.94;;;9.68;100.00
59787;BME280;45672;51.612;5.536;2023-04-07T09:57:51;101553.56;;;9.69;100.00
59787;BME280;45672;51.612;5.536;2023-04-07T10:00:17;101547.03;;;9.73;100.00
59787;BME280;45672;51.612;5.536;2023-04-07T10:02:43;101540.88;;;9.73;100.00
59787;BME280;45672;51.612;5.536;2023-04-07T10:05:10;101543.59;;;9.82;100.00
59787;BME280;45672;51.612;5.536;2023-04-07T10:07:36;101545.84;;;9.87;100.00
59787;BME280;45672;51.612;5.536;2023-04-07T10:10:02;101552.06;;;9.76;100.00
59787;BME280;45672;51.612;5.536;2023-04-07T10:12:29;101555.22;;;9.60;100.00
59787;BME280;45672;51.612;5.536;2023-04-07T10:14:57;101562.78;;;9.65;100.00
59787;BME280;45672;51.612;5.536;2023-04-07T10:17:23;101557.91;;;9.70;100.00
59787;BME280;45672;51.612;5.536;2023-04-07T10:19:49;101566.28;;;9.65;100.00
59787;BME280;45672;51.612;5.536;2023-04-07T10:22:15;101559.94;;;9.57;100.00
59787;BME280;45672;51.612;5.536;2023-04-07T10:25:10;101564.09;;;9.49;100.00
59787;BME280;45672;51.612;5.536;2023-04-07T10:27:50;101565.41;;;9.55;100.00
59787;BME280;45672;51.612;5.536;2023-04-07T10:30:22;101558.59;;;9.62;100.00
59787;BME280;45672;51.612;5.536;2023-04-07T10:32:49;101567.13;;;9.66;100.00
59787;BME280;45672;51.612;5.536;2023-04-07T10:35:15;101567.63;;;9.81;100.00
59787;BME280;45672;51.612;5.536;2023-04-07T10:38:10;101576.34;;;9.93;100.00
59787;BME280;45672;51.612;5.536;2023-04-07T10:40:37;101573.16;;;9.99;100.00
59787;BME280;45672;51.612;5.536;2023-04-07T10:43:04;101586.44;;;9.99;100.00
59787;BME280;45672;51.612;5.536;2023-04-07T10:48:11;101579.94;;;9.82;100.00
59787;BME280;45672;51.612;5.536;2023-04-07T10:50:37;101586.94;;;9.83;100.00
59787;BME280;45672;51.612;5.536;2023-04-07T10:55:46;101593.13;;;9.93;100.00
59787;BME280;45672;51.612;5.536;2023-04-07T10:58:31;101579.47;;;9.98;100.00
59787;BME280;45672;51.612;5.536;2023-04-07T11:03:26;101582.91;;;9.89;100.00
59787;BME280;45672;51.612;5.536;2023-04-07T11:05:52;101588.50;;;9.86;100.00
59787;BME280;45672;51.612;5.536;2023-04-07T11:08:34;101588.50;;;9.86;100.00
59787;BME280;45672;51.612;5.536;2023-04-07T11:11:00;101591.44;;;9.82;100.00
59787;BME280;45672;51.612;5.536;2023-04-07T11:13:25;101591.69;;;9.79;100.00
59787;BME280;45672;51.612;5.536;2023-04-07T11:15:51;101595.06;;;9.81;100.00
59787;BME280;45672;51.612;5.536;2023-04-07T11:18:21;101596.75;;;9.82;100.00
59787;BME280;45672;51.612;5.536;2023-04-07T11:20:54;101591.94;;;9.76;100.00
59787;BME280;45672;51.612;5.536;2023-04-07T11:23:23;101600.50;;;9.80;100.00
59787;BME280;45672;51.612;5.536;2023-04-07T11:25:51;101603.75;;;9.83;100.00
59787;BME280;45672;51.612;5.536;2023-04-07T11:28:17;101603.06;;;9.91;100.00
59787;BME280;45672;51.612;5.536;2023-04-07T11:30:51;101597.22;;;9.97;100.00
59787;BME280;45672;51.612;5.536;2023-04-07T11:33:22;101599.09;;;10.07;100.00
59787;BME280;45672;51.612;5.536;2023-04-07T11:35:48;101603.59;;;10.16;100.00
59787;BME280;45672;51.612;5.536;2023-04-07T11:38:14;101606.56;;;10.23;100.00
59787;BME280;45672;51.612;5.536;2023-04-07T11:40:40;101605.47;;;10.25;100.00
59787;BME280;45672;51.612;5.536;2023-04-07T11:43:16;101610.38;;;10.30;100.00
59787;BME280;45672;51.612;5.536;2023-04-07T11:45:42;101605.63;;;10.24;100.00
59787;BME280;45672;51.612;5.536;2023-04-07T11:48:30;101602.50;;;10.18;100.00
59787;BME280;45672;51.612;5.536;2023-04-07T11:50:56;101608.69;;;10.19;100.00
59787;BME280;45672;51.612;5.536;2023-04-07T11:53:26;101608.41;;;10.22;100.00
59787;BME280;45672;51.612;5.536;2023-04-07T11:56:05;101609.47;;;10.41;100.00
59787;BME280;45672;51.612;5.536;2023-04-07T11:58:32;101611.47;;;10.58;100.00
59787;BME280;45672;51.612;5.536;2023-04-07T12:00:58;101618.00;;;10.85;100.00
59787;BME280;45672;51.612;5.536;2023-04-07T12:03:27;101626.84;;;11.05;100.00
59787;BME280;45672;51.612;5.536;2023-04-07T12:05:53;101625.16;;;11.04;100.00
59787;BME280;45672;51.612;5.536;2023-04-07T12:08:19;101613.22;;;10.89;100.00
59787;BME280;45672;51.612;5.536;2023-04-07T12:10:45;101631.41;;;10.74;100.00
59787;BME280;45672;51.612;5.536;2023-04-07T12:13:12;101627.47;;;10.68;100.00
59787;BME280;45672;51.612;5.536;2023-04-07T12:15:37;101629.88;;;10.71;100.00
59787;BME280;45672;51.612;5.536;2023-04-07T12:18:03;101623.88;;;10.89;100.00
59787;BME280;45672;51.612;5.536;2023-04-07T12:20:28;101628.25;;;11.19;100.00
59787;BME280;45672;51.612;5.536;2023-04-07T12:22:54;101638.19;;;11.27;100.00
59787;BME280;45672;51.612;5.536;2023-04-07T12:25:19;101638.06;;;11.18;98.61
59787;BME280;45672;51.612;5.536;2023-04-07T12:27:45;101639.31;;;11.04;100.00
59787;BME280;45672;51.612;5.536;2023-04-07T12:30:11;101646.72;;;10.91;100.00
59787;BME280;45672;51.612;5.536;2023-04-07T12:32:37;101647.38;;;10.74;100.00
59787;BME280;45672;51.612;5.536;2023-04-07T12:35:02;101644.53;;;10.56;100.00
59787;BME280;45672;51.612;5.536;2023-04-07T12:37:27;101648.03;;;10.56;100.00
59787;BME280;45672;51.612;5.536;2023-04-07T12:39:53;101646.66;;;10.62;100.00
59787;BME280;45672;51.612;5.536;2023-04-07T12:42:18;101652.84;;;10.72;100.00
59787;BME280;45672;51.612;5.536;2023-04-07T12:44:43;101657.19;;;10.83;100.00
59787;BME280;45672;51.612;5.536;2023-04-07T12:47:09;101660.59;;;10.95;100.00
59787;BME280;45672;51.612;5.536;2023-04-07T12:49:36;101657.81;;;10.96;100.00
59787;BME280;45672;51.612;5.536;2023-04-07T12:52:01;101657.09;;;10.84;100.00
59787;BME280;45672;51.612;5.536;2023-04-07T12:54:27;101659.72;;;10.75;100.00
59787;BME280;45672;51.612;5.536;2023-04-07T12:56:53;101658.69;;;10.66;100.00
59787;BME280;45672;51.612;5.536;2023-04-07T12:59:18;101665.81;;;10.56;100.00
59787;BME280;45672;51.612;5.536;2023-04-07T13:01:43;101668.75;;;10.52;100.00